createdAt,value
2019-01-24T00:02:04.124Z,22.2
2019-01-24T00:05:10.081Z,22.2
2019-01-24T00:08:16.092Z,22.2
2019-01-24T00:11:24.760Z,22.2
2019-01-24T00:14:30.722Z,22.2
2019-01-24T00:17:36.598Z,22.1
2019-01-24T00:20:42.700Z,22.1
2019-01-24T00:23:48.709Z,22.1
2019-01-24T00:26:54.625Z,22.1
2019-01-24T00:30:00.522Z,22.1
2019-01-24T00:33:06.436Z,22.1
2019-01-24T00:36:12.402Z,22.1
2019-01-24T00:39:18.501Z,22.1
2019-01-24T00:42:24.619Z,22.1
2019-01-24T00:45:30.632Z,22.1
2019-01-24T00:48:36.680Z,22.1
2019-01-24T00:51:44.051Z,22.1
2019-01-24T00:54:50.039Z,22
2019-01-24T00:57:56.084Z,22
2019-01-24T01:01:02.048Z,22
2019-01-24T01:04:07.973Z,22
2019-01-24T01:07:13.874Z,21.9
2019-01-24T01:10:19.823Z,21.9
2019-01-24T01:13:28.529Z,21.8
2019-01-24T01:16:34.458Z,21.8
2019-01-24T01:19:40.466Z,21.8
2019-01-24T01:22:46.399Z,21.8
2019-01-24T01:25:52.364Z,21.8
2019-01-24T01:28:58.370Z,21.8
2019-01-24T01:32:04.326Z,21.8
2019-01-24T01:35:10.251Z,21.8
2019-01-24T01:38:17.456Z,21.8
2019-01-24T01:41:23.492Z,21.8
2019-01-24T01:44:29.428Z,21.8
2019-01-24T01:47:35.330Z,21.8
2019-01-24T01:50:41.272Z,21.8
2019-01-24T01:53:47.246Z,21.8
2019-01-24T01:56:53.117Z,21.8
2019-01-24T01:59:59.040Z,21.8
2019-01-24T02:03:05.146Z,21.8
2019-01-24T02:06:11.042Z,21.8
2019-01-24T02:09:17.066Z,21.8
2019-01-24T02:12:23.026Z,21.8
2019-01-24T02:15:28.941Z,21.7
2019-01-24T02:18:34.883Z,21.8
2019-01-24T02:21:40.843Z,21.8
2019-01-24T02:24:46.807Z,21.8
2019-01-24T02:27:52.769Z,21.8
2019-01-24T02:30:58.746Z,21.8
2019-01-24T02:34:04.703Z,21.8
2019-01-24T02:37:10.674Z,21.8
2019-01-24T02:40:16.664Z,21.8
2019-01-24T02:43:22.688Z,21.8
2019-01-24T02:46:28.558Z,21.8
2019-01-24T02:49:34.504Z,21.8
2019-01-24T02:52:40.438Z,21.8
2019-01-24T02:55:46.513Z,21.8
2019-01-24T02:58:52.473Z,21.8
2019-01-24T03:01:58.432Z,21.7
2019-01-24T03:05:04.371Z,21.8
2019-01-24T03:08:10.372Z,21.8
2019-01-24T03:11:16.293Z,21.7
2019-01-24T03:14:22.419Z,21.8
2019-01-24T03:17:28.413Z,21.7
2019-01-24T03:20:34.339Z,21.7
2019-01-24T03:23:40.186Z,21.8
2019-01-24T03:26:46.210Z,21.7
2019-01-24T03:29:52.092Z,21.7
2019-01-24T03:32:58.173Z,21.7
2019-01-24T03:36:04.246Z,21.7
2019-01-24T03:39:10.220Z,21.8
2019-01-24T03:42:16.184Z,21.7
2019-01-24T03:45:22.149Z,21.7
2019-01-24T03:48:28.123Z,21.7
2019-01-24T03:51:34.015Z,21.7
2019-01-24T03:54:40.043Z,21.7
2019-01-24T03:57:45.930Z,21.8
2019-01-24T04:00:51.862Z,21.9
2019-01-24T04:03:57.751Z,21.9
2019-01-24T04:07:03.891Z,22
2019-01-24T04:10:09.836Z,22
2019-01-24T04:13:18.343Z,22.1
2019-01-24T04:16:24.308Z,22.1
2019-01-24T04:19:30.263Z,22.1
2019-01-24T04:22:36.199Z,22.2
2019-01-24T04:25:42.216Z,22.2
2019-01-24T04:28:48.189Z,22.2
2019-01-24T04:31:54.041Z,22.2
2019-01-24T04:35:00.043Z,22.3
2019-01-24T04:38:06.000Z,22.3
2019-01-24T04:41:11.951Z,22.3
2019-01-24T04:44:18.041Z,22.4
2019-01-24T04:47:26.742Z,22.4
2019-01-24T04:50:32.735Z,22.4
2019-01-24T04:53:38.634Z,22.4
2019-01-24T04:56:44.580Z,22.5
2019-01-24T04:59:50.545Z,22.5
2019-01-24T05:02:56.401Z,22.5
2019-01-24T05:06:02.528Z,22.5
2019-01-24T05:09:08.498Z,22.5
2019-01-24T05:12:14.437Z,22.6
2019-01-24T05:15:20.481Z,22.6
2019-01-24T05:18:26.508Z,22.6
2019-01-24T05:21:32.658Z,22.6
2019-01-24T05:24:38.525Z,22.6
2019-01-24T05:27:44.453Z,22.7
2019-01-24T05:30:50.501Z,22.7
2019-01-24T05:33:56.499Z,22.7
2019-01-24T05:37:02.356Z,22.7
2019-01-24T05:40:08.380Z,22.7
2019-01-24T05:43:14.442Z,22.7
2019-01-24T05:46:20.349Z,22.7
2019-01-24T05:49:26.362Z,22.8
2019-01-24T05:52:32.268Z,22.8
2019-01-24T05:55:38.319Z,22.9
2019-01-24T05:58:44.273Z,22.9
2019-01-24T06:01:50.288Z,22.9
2019-01-24T06:04:56.212Z,22.9
2019-01-24T06:08:02.127Z,23
2019-01-24T06:11:08.079Z,23
2019-01-24T06:14:14.083Z,23
2019-01-24T06:17:20.097Z,23.1
2019-01-24T06:20:26.068Z,23.1
2019-01-24T06:23:32.040Z,23.1
2019-01-24T06:26:38.007Z,23.2
2019-01-24T06:29:43.961Z,23.2
2019-01-24T06:32:49.835Z,23.2
2019-01-24T06:35:55.764Z,23.3
2019-01-24T06:39:01.790Z,23.3
2019-01-24T06:42:07.824Z,23.3
2019-01-24T06:45:13.778Z,23.3
2019-01-24T06:48:19.805Z,23.4
2019-01-24T06:51:25.643Z,23.5
2019-01-24T06:54:31.594Z,23.6
2019-01-24T06:57:37.528Z,23.6
2019-01-24T07:00:46.512Z,23.6
2019-01-24T07:03:52.454Z,23.7
2019-01-24T07:06:58.514Z,23.6
2019-01-24T07:10:04.435Z,23.6
2019-01-24T07:13:10.459Z,23.7
2019-01-24T07:16:16.402Z,23.7
2019-01-24T07:19:22.388Z,23.7
2019-01-24T07:22:28.319Z,23.7
2019-01-24T07:25:34.229Z,23.8
2019-01-24T07:28:40.454Z,23.9
2019-01-24T07:31:46.629Z,23.9
2019-01-24T07:34:52.857Z,23.9
2019-01-24T07:37:59.240Z,23.9
2019-01-24T07:41:07.198Z,24
2019-01-24T07:44:13.681Z,24
2019-01-24T07:47:20.933Z,24
2019-01-24T07:50:27.138Z,24
2019-01-24T07:53:35.349Z,24
2019-01-24T07:56:41.393Z,24.1
2019-01-24T07:59:48.487Z,24.2
2019-01-24T08:02:54.488Z,24.1
2019-01-24T08:06:00.530Z,24.1
2019-01-24T08:09:13.183Z,24.1
2019-01-24T08:12:19.059Z,24.1
2019-01-24T08:15:25.116Z,24.1
2019-01-24T08:18:32.291Z,24
2019-01-24T08:21:38.128Z,24
2019-01-24T08:24:44.074Z,24
2019-01-24T08:27:50.176Z,24
2019-01-24T08:30:56.180Z,24
2019-01-24T08:34:02.334Z,24
2019-01-24T08:37:08.308Z,24
2019-01-24T08:40:15.357Z,24
2019-01-24T08:43:21.298Z,23.9
2019-01-24T08:46:27.486Z,24
2019-01-24T08:49:34.807Z,24
2019-01-24T08:52:41.051Z,24
2019-01-24T08:55:47.151Z,23.9
2019-01-24T08:58:53.503Z,24
2019-01-24T09:02:00.035Z,24
2019-01-24T09:05:07.211Z,24
2019-01-24T09:08:13.227Z,24
2019-01-24T09:11:19.463Z,24
2019-01-24T09:14:25.959Z,24
2019-01-24T09:17:32.306Z,24
2019-01-24T09:20:38.669Z,24
2019-01-24T09:23:44.778Z,24
2019-01-24T09:26:50.714Z,24
2019-01-24T09:29:56.731Z,24
2019-01-24T09:33:02.736Z,24
2019-01-24T09:36:08.789Z,24
2019-01-24T09:39:17.309Z,24
2019-01-24T09:42:23.430Z,24
2019-01-24T09:45:29.651Z,24
2019-01-24T09:48:35.702Z,24
2019-01-24T09:51:42.837Z,24
2019-01-24T09:54:48.838Z,24
2019-01-24T09:57:54.705Z,24
2019-01-24T10:01:00.765Z,24
2019-01-24T10:04:06.723Z,24
2019-01-24T10:07:12.583Z,24
2019-01-24T10:10:18.761Z,24
2019-01-24T10:13:28.210Z,24
2019-01-24T10:16:34.432Z,24
2019-01-24T10:19:40.590Z,24
2019-01-24T10:22:46.460Z,24
2019-01-24T10:25:52.323Z,24.1
2019-01-24T10:28:58.348Z,24.1
2019-01-24T10:32:04.304Z,24.1
2019-01-24T10:35:10.361Z,24.1
2019-01-24T10:38:16.860Z,24.1
2019-01-24T10:41:23.032Z,24.1
2019-01-24T10:44:28.980Z,24.1
2019-01-24T10:47:36.203Z,24.1
2019-01-24T10:50:42.257Z,24.1
2019-01-24T10:53:48.212Z,24.1
2019-01-24T10:56:54.232Z,24.2
2019-01-24T11:00:00.365Z,24.2
2019-01-24T11:03:06.364Z,24.2
2019-01-24T11:06:12.400Z,24.2
2019-01-24T11:09:18.320Z,24.2
2019-01-24T11:12:24.261Z,24.3
2019-01-24T11:15:30.396Z,24.3
2019-01-24T11:18:39.177Z,24.3
2019-01-24T11:21:45.454Z,24.3
2019-01-24T11:24:51.708Z,24.3
2019-01-24T11:27:58.081Z,24.3
2019-01-24T11:31:04.006Z,24.3
2019-01-24T11:34:10.050Z,24.4
2019-01-24T11:37:17.211Z,24.4
2019-01-24T11:40:23.257Z,24.4
2019-01-24T11:43:29.135Z,24.4
2019-01-24T11:46:35.239Z,24.4
2019-01-24T11:49:42.326Z,24.4
2019-01-24T11:52:48.574Z,24.4
2019-01-24T11:55:54.926Z,24.4
2019-01-24T11:59:00.893Z,24.4
2019-01-24T12:02:06.958Z,24.4
2019-01-24T12:05:13.985Z,24.5
2019-01-24T12:08:21.567Z,24.5
2019-01-24T12:11:30.408Z,24.6
2019-01-24T12:14:36.492Z,24.6
2019-01-24T12:17:42.499Z,24.7
2019-01-24T12:20:49.428Z,24.7
2019-01-24T12:23:55.411Z,24.6
2019-01-24T12:27:04.995Z,24.7
2019-01-24T12:30:11.306Z,24.7
2019-01-24T12:33:17.384Z,24.6
2019-01-24T12:36:24.267Z,24.7
2019-01-24T12:39:31.483Z,24.7
2019-01-24T12:42:40.207Z,24.7
2019-01-24T12:45:46.117Z,24.7
2019-01-24T12:48:52.295Z,24.7
2019-01-24T12:51:59.195Z,24.7
2019-01-24T12:55:05.281Z,24.7
2019-01-24T12:58:11.164Z,24.7
2019-01-24T13:01:17.164Z,24.8
2019-01-24T13:04:23.211Z,24.7
2019-01-24T13:07:29.327Z,24.7
2019-01-24T13:10:36.305Z,24.8
2019-01-24T13:13:42.413Z,24.8
2019-01-24T13:16:48.454Z,24.7
2019-01-24T13:19:54.555Z,24.7
2019-01-24T13:23:00.571Z,24.7
2019-01-24T13:26:06.592Z,24.7
2019-01-24T13:29:12.658Z,24.7
2019-01-24T13:32:18.697Z,24.7
2019-01-24T13:35:24.620Z,24.7
2019-01-24T13:38:31.572Z,24.7
2019-01-24T13:41:42.379Z,24.7
2019-01-24T13:44:48.647Z,24.7
2019-01-24T13:47:54.980Z,24.7
2019-01-24T13:51:00.932Z,24.7
2019-01-24T13:54:09.766Z,24.7
2019-01-24T13:57:15.725Z,24.7
2019-01-24T14:00:21.779Z,24.7
2019-01-24T14:03:27.751Z,24.7
2019-01-24T14:06:33.842Z,24.7
2019-01-24T14:09:42.984Z,24.7
2019-01-24T14:12:50.387Z,24.7
2019-01-24T14:15:56.566Z,24.7
2019-01-24T14:19:02.560Z,24.7
2019-01-24T14:22:08.657Z,24.7
2019-01-24T14:25:14.559Z,24.7
2019-01-24T14:28:20.567Z,24.7
2019-01-24T14:31:26.433Z,24.7
2019-01-24T14:34:32.447Z,24.6
2019-01-24T14:37:39.826Z,24.7
2019-01-24T14:40:45.976Z,24.7
2019-01-24T14:43:52.293Z,24.6
2019-01-24T14:46:58.285Z,24.7
2019-01-24T14:50:04.378Z,24.6
2019-01-24T14:53:10.375Z,24.6
2019-01-24T14:56:16.695Z,24.7
2019-01-24T14:59:22.853Z,24.7
2019-01-24T15:02:28.795Z,24.7
2019-01-24T15:05:34.805Z,24.7
2019-01-24T15:08:40.785Z,24.6
2019-01-24T15:11:47.819Z,24.6
2019-01-24T15:14:53.976Z,24.6
2019-01-24T15:18:00.159Z,24.6
2019-01-24T15:21:06.182Z,24.7
2019-01-24T15:24:12.132Z,24.7
2019-01-24T15:27:18.075Z,24.7
2019-01-24T15:30:24.002Z,24.7
2019-01-24T15:33:30.045Z,24.7
2019-01-24T15:36:36.057Z,24.7
2019-01-24T15:39:42.031Z,24.7
2019-01-24T15:42:47.998Z,24.7
2019-01-24T15:45:54.002Z,24.6
2019-01-24T15:49:00.428Z,24.6
2019-01-24T15:52:06.459Z,24.6
2019-01-24T15:55:12.583Z,24.6
2019-01-24T15:58:18.637Z,24.6
2019-01-24T16:01:24.667Z,24.6
2019-01-24T16:04:30.732Z,24.6
2019-01-24T16:07:36.580Z,24.5
2019-01-24T16:10:42.566Z,24.5
2019-01-24T16:13:48.613Z,24.5
2019-01-24T16:16:54.595Z,24.5
2019-01-24T16:20:00.706Z,24.5
2019-01-24T16:23:06.710Z,24.5
2019-01-24T16:26:12.654Z,24.5
2019-01-24T16:29:18.629Z,24.5
2019-01-24T16:32:24.713Z,24.4
2019-01-24T16:35:31.724Z,24.4
2019-01-24T16:38:37.867Z,24.5
2019-01-24T16:41:43.799Z,24.6
2019-01-24T16:44:49.777Z,24.7
2019-01-24T16:47:55.768Z,24.6
2019-01-24T16:51:01.770Z,24.6
2019-01-24T16:54:07.735Z,24.6
2019-01-24T16:57:13.613Z,24.6
2019-01-24T17:00:19.543Z,24.5
2019-01-24T17:03:25.433Z,24.5
2019-01-24T17:06:31.440Z,24.5
2019-01-24T17:09:37.404Z,24.5
2019-01-24T17:12:43.346Z,24.5
2019-01-24T17:15:49.330Z,24.4
2019-01-24T17:18:55.348Z,24.4
2019-01-24T17:22:01.463Z,24.3
2019-01-24T17:25:07.344Z,24.3
2019-01-24T17:28:13.292Z,24.3
2019-01-24T17:31:19.259Z,24.3
2019-01-24T17:34:25.164Z,24.3
2019-01-24T17:37:31.181Z,24.3
2019-01-24T17:40:37.259Z,24.3
2019-01-24T17:43:43.673Z,24.2
2019-01-24T17:46:49.620Z,24.2
2019-01-24T17:49:55.697Z,24.2
2019-01-24T17:53:01.694Z,24.2
2019-01-24T17:56:07.638Z,24.2
2019-01-24T17:59:13.513Z,24.1
2019-01-24T18:02:19.491Z,24.1
2019-01-24T18:05:25.450Z,24.1
2019-01-24T18:08:31.634Z,24.1
2019-01-24T18:11:37.673Z,24.1
2019-01-24T18:14:43.673Z,24.1
2019-01-24T18:17:49.567Z,24.1
2019-01-24T18:20:55.403Z,24.1
2019-01-24T18:24:01.416Z,24
2019-01-24T18:27:07.454Z,24
2019-01-24T18:30:13.381Z,24
2019-01-24T18:33:19.392Z,24
2019-01-24T18:36:25.440Z,24
2019-01-24T18:39:31.431Z,24
2019-01-24T18:42:37.401Z,24
2019-01-24T18:45:43.344Z,24
2019-01-24T18:48:49.403Z,24
2019-01-24T18:51:55.590Z,24
2019-01-24T18:55:01.553Z,23.9
2019-01-24T18:58:07.519Z,23.9
2019-01-24T19:01:13.499Z,23.8
2019-01-24T19:04:19.574Z,23.7
2019-01-24T19:07:25.505Z,23.7
2019-01-24T19:10:31.396Z,23.7
2019-01-24T19:13:37.471Z,23.6
2019-01-24T19:16:43.485Z,23.5
2019-01-24T19:19:49.454Z,23.5
2019-01-24T19:22:55.340Z,23.5
2019-01-24T19:26:01.318Z,23.5
2019-01-24T19:29:07.366Z,23.4
2019-01-24T19:32:13.317Z,23.4
2019-01-24T19:35:19.189Z,23.4
2019-01-24T19:38:25.159Z,23.3
2019-01-24T19:41:31.364Z,23.3
2019-01-24T19:44:38.912Z,23.3
2019-01-24T19:47:44.923Z,23.2
2019-01-24T19:50:50.912Z,23.2
2019-01-24T19:53:57.003Z,23.2
2019-01-24T19:57:03.661Z,23.2
2019-01-24T20:00:09.640Z,23.1
2019-01-24T20:03:15.640Z,23.1
2019-01-24T20:06:21.658Z,23.1
2019-01-24T20:09:27.603Z,23.1
2019-01-24T20:12:33.624Z,23.1
2019-01-24T20:15:39.583Z,23
2019-01-24T20:18:45.623Z,23
2019-01-24T20:21:52.794Z,23
2019-01-24T20:25:01.661Z,23
2019-01-24T20:28:07.561Z,23
2019-01-24T20:31:13.485Z,23
2019-01-24T20:34:19.426Z,22.9
2019-01-24T20:37:25.349Z,23
2019-01-24T20:40:31.569Z,22.9
2019-01-24T20:43:38.432Z,22.9
2019-01-24T20:46:44.377Z,22.9
2019-01-24T20:49:50.354Z,22.9
2019-01-24T20:52:56.269Z,22.9
2019-01-24T20:56:04.245Z,22.9
2019-01-24T20:59:10.191Z,22.8
2019-01-24T21:02:16.092Z,22.8
2019-01-24T21:05:22.013Z,22.8
2019-01-24T21:08:28.029Z,22.8
2019-01-24T21:11:34.037Z,22.8
2019-01-24T21:14:39.928Z,22.8
2019-01-24T21:17:45.942Z,22.8
2019-01-24T21:20:51.996Z,22.7
2019-01-24T21:23:58.148Z,22.7
2019-01-24T21:27:04.183Z,22.7
2019-01-24T21:30:10.192Z,22.7
2019-01-24T21:33:16.147Z,22.7
2019-01-24T21:36:22.058Z,22.7
2019-01-24T21:39:27.925Z,22.7
2019-01-24T21:42:33.881Z,22.7
2019-01-24T21:45:39.893Z,22.7
2019-01-24T21:48:45.948Z,22.7
2019-01-24T21:51:51.950Z,22.8
2019-01-24T21:54:58.022Z,22.7
2019-01-24T21:58:04.085Z,22.7
2019-01-24T22:01:10.016Z,22.7
2019-01-24T22:04:15.886Z,22.7
2019-01-24T22:07:21.813Z,22.6
2019-01-24T22:10:27.754Z,22.6
2019-01-24T22:13:33.662Z,22.6
2019-01-24T22:16:39.639Z,22.6
2019-01-24T22:19:45.659Z,22.5
2019-01-24T22:22:51.599Z,22.5
2019-01-24T22:25:57.556Z,22.5
2019-01-24T22:29:03.514Z,22.5
2019-01-24T22:32:09.474Z,22.5
2019-01-24T22:35:15.408Z,22.4
2019-01-24T22:38:21.340Z,22.4
2019-01-24T22:41:27.337Z,22.4
2019-01-24T22:44:36.062Z,22.4
2019-01-24T22:47:42.034Z,22.4
2019-01-24T22:50:48.044Z,22.4
2019-01-24T22:53:53.973Z,22.3
2019-01-24T22:56:59.938Z,22.3
2019-01-24T23:00:05.820Z,22.3
2019-01-24T23:03:11.795Z,22.3
2019-01-24T23:06:17.733Z,22.3
2019-01-24T23:09:23.781Z,22.2
2019-01-24T23:12:29.708Z,22.2
2019-01-24T23:15:35.681Z,22.2
2019-01-24T23:18:41.644Z,22.2
2019-01-24T23:21:47.596Z,22.2
2019-01-24T23:24:54.990Z,22.2
2019-01-24T23:28:00.936Z,22.2
2019-01-24T23:31:06.997Z,22.1
2019-01-24T23:34:12.964Z,22.1
2019-01-24T23:37:18.967Z,22.1
2019-01-24T23:40:24.831Z,22.1
2019-01-24T23:43:30.881Z,22.1
2019-01-24T23:46:37.180Z,22.1
2019-01-24T23:49:43.252Z,22.1
2019-01-24T23:52:49.258Z,22
2019-01-24T23:55:55.163Z,22
2019-01-24T23:59:01.106Z,22
